Time;durP1;ratioP1;P1;durP2;ratioP2;P2;SDS_P1;SDS_P2;PMS_P1;PMS_P2;Temp;Humidity;BMP_temperature;BMP_pressure;BME280_temperature;BME280_humidity;BME280_pressure;Samples;Min_cycle;Max_cycle;Signal;HPM_P1;HPM_P2
2022/03/26 00:01:38;;;;;;;;;48.00;38.50;;;;;13.22;37.56;102208.09;5012424;28;69173;-83
2022/03/26 00:11:33;;;;;;;;;51.00;40.25;;;;;12.97;38.56;102199.25;5011709;28;45542;-83
2022/03/26 00:17:48;;;;;;;;;50.25;39.00;;;;;13.06;38.98;102228.41;5026629;28;45791;-83
2022/03/26 00:20:38;;;;;;;;;53.50;39.75;;;;;13.03;38.85;102227.94;5060117;28;45475;-83
2022/03/26 00:23:49;;;;;;;;;;;;;;;;;;;;;
2022/03/26 00:29:51;;;;;;;;;49.75;40.50;;;;;12.62;39.16;102168.66;5005057;28;45418;-83
2022/03/26 00:32:17;;;;;;;;;48.25;37.00;;;;;12.30;39.13;102117.56;5035126;28;45664;-83
2022/03/26 00:38:24;;;;;;;;;53.00;41.00;;;;;12.87;39.19;102221.59;5026997;28;45594;-82
2022/03/26 00:40:56;;;;;;;;;48.75;36.50;;;;;12.83;39.63;102234.00;5038887;28;45764;-84
2022/03/26 00:43:25;;;;;;;;;51.00;41.00;;;;;12.58;39.25;102194.00;5057254;28;47548;-84
2022/03/26 00:45:51;;;;;;;;;50.50;39.00;;;;;12.76;39.59;102227.53;5056988;28;44861;-83
2022/03/26 00:48:17;;;;;;;;;52.50;39.50;;;;;12.41;39.53;102174.91;5039440;28;45390;-83
2022/03/26 00:51:56;;;;;;;;;56.75;40.50;;;;;12.69;39.71;102221.06;5056997;28;46692;-81
2022/03/26 00:55:03;;;;;;;;;51.25;39.00;;;;;12.63;39.51;102224.56;4940472;28;45430;-83
2022/03/26 00:58:31;;;;;;;;;;;;;;;;;;;;;
2022/03/26 01:00:59;;;;;;;;;53.25;39.50;;;;;12.22;39.79;102169.91;4932470;28;67704;-83
2022/03/26 01:07:26;;;;;;;;;52.75;38.00;;;;;12.44;40.12;102221.28;4888562;29;46631;-82
2022/03/26 01:10:59;;;;;;;;;;;;;;;;;;;;;
2022/03/26 01:17:11;;;;;;;;;44.25;34.75;;;;;12.31;40.20;102221.06;4866220;29;45679;-83
2022/03/26 01:23:38;;;;;;;;;53.25;43.50;;;;;11.94;40.67;102162.19;4821255;29;45990;-82
2022/03/26 01:33:16;;;;;;;;;54.50;38.50;;;;;11.81;40.70;102152.66;4840395;29;45115;-80
2022/03/26 01:35:42;;;;;;;;;50.50;41.25;;;;;12.10;40.88;102217.09;4872468;28;46211;-81
2022/03/26 01:38:07;;;;;;;;;47.50;37.50;;;;;11.98;41.18;102200.16;5000219;28;45457;-81
2022/03/26 01:40:43;;;;;;;;;47.50;39.00;;;;;11.92;41.03;102181.59;5004614;28;45968;-82
2022/03/26 01:43:09;;;;;;;;;55.50;44.00;;;;;11.90;41.01;102188.31;5007928;28;45456;-82
2022/03/26 01:45:49;;;;;;;;;50.50;39.75;;;;;11.99;41.50;102203.75;5012912;28;45724;-82
2022/03/26 01:48:14;;;;;;;;;51.25;41.00;;;;;11.95;41.46;102196.91;4996245;28;45918;-82
2022/03/26 01:50:42;;;;;;;;;54.25;42.25;;;;;11.80;41.38;102189.41;5017689;28;45717;-81
2022/03/26 01:53:07;;;;;;;;;50.50;38.25;;;;;11.92;41.06;102195.34;5018177;28;47232;-81
2022/03/26 01:55:36;;;;;;;;;52.00;40.50;;;;;11.41;41.68;102124.38;5032547;28;45483;-80
2022/03/26 01:58:02;;;;;;;;;44.00;36.75;;;;;11.44;41.60;102135.00;5015079;28;45447;-81
2022/03/26 02:00:31;;;;;;;;;46.50;36.75;;;;;11.85;41.31;102202.59;5024690;28;46442;-82
2022/03/26 02:02:58;;;;;;;;;53.00;39.50;;;;;11.83;41.25;102191.78;5020739;28;47854;-83
2022/03/26 02:05:37;;;;;;;;;50.25;39.00;;;;;11.81;41.43;102191.13;5032376;28;45369;-83
2022/03/26 02:08:03;;;;;;;;;55.75;41.75;;;;;11.81;42.16;102198.50;5011295;28;45416;-82
2022/03/26 02:10:32;;;;;;;;;48.75;38.50;;;;;11.78;41.61;102202.50;5035620;28;45929;-84
2022/03/26 02:13:49;;;;;;;;;55.50;40.25;;;;;11.75;42.10;102194.59;5055371;28;45932;-82
2022/03/26 02:16:28;;;;;;;;;56.00;39.75;;;;;11.72;41.86;102186.72;4972804;28;45418;-81
2022/03/26 02:18:54;;;;;;;;;57.75;43.25;;;;;11.06;41.90;102084.56;5007550;28;45423;-81
2022/03/26 02:21:23;;;;;;;;;55.75;43.00;;;;;11.36;42.18;102134.19;5014802;28;45619;-83
2022/03/26 02:23:55;;;;;;;;;52.75;42.00;;;;;10.93;42.29;102077.78;5014710;28;45549;-81
2022/03/26 02:26:28;;;;;;;;;45.75;35.25;;;;;11.59;42.50;102197.44;5011224;28;45830;-82
2022/03/26 02:28:55;;;;;;;;;53.00;42.25;;;;;11.22;42.68;102124.84;5013136;28;45897;-81
2022/03/26 02:31:22;;;;;;;;;55.25;44.00;;;;;11.52;42.64;102191.78;5023660;28;44895;-82
2022/03/26 02:33:51;;;;;;;;;48.25;36.00;;;;;11.47;42.48;102181.34;4996976;28;45551;-83
2022/03/26 02:36:20;;;;;;;;;54.25;42.75;;;;;11.43;42.76;102174.50;4991245;28;45872;-81
2022/03/26 02:38:45;;;;;;;;;55.50;42.75;;;;;10.93;42.89;102107.13;4994617;28;45656;-82
2022/03/26 02:41:11;;;;;;;;;47.25;39.00;;;;;11.37;43.09;102183.47;4979446;28;45930;-82
2022/03/26 02:43:37;;;;;;;;;57.50;42.50;;;;;11.33;43.05;102181.25;4978735;28;47309;-81
2022/03/26 02:46:09;;;;;;;;;54.75;42.25;;;;;11.29;43.30;102181.59;4994234;28;45591;-80
2022/03/26 02:48:35;;;;;;;;;53.25;39.75;;;;;10.88;43.19;102121.38;5001476;28;45685;-80
2022/03/26 02:51:02;;;;;;;;;54.50;42.00;;;;;11.21;43.76;102175.28;5008969;28;47148;-81
2022/03/26 02:53:27;;;;;;;;;51.25;40.50;;;;;11.20;43.17;102182.69;4999277;28;46848;-82
2022/03/26 02:55:56;;;;;;;;;55.00;43.00;;;;;11.18;43.78;102189.38;5006530;28;45411;-82
2022/03/26 02:58:22;;;;;;;;;57.25;43.75;;;;;11.14;43.40;102197.13;5013837;28;45497;-81
2022/03/26 03:00:48;;;;;;;;;55.75;44.00;;;;;10.76;43.63;102122.78;5028419;28;45482;-84
2022/03/26 03:03:17;;;;;;;;;46.50;37.25;;;;;10.91;43.64;102151.22;5018623;28;47902;-82
2022/03/26 03:05:46;;;;;;;;;54.50;41.00;;;;;10.99;43.42;102168.66;5018025;28;45410;-81
2022/03/26 03:08:15;;;;;;;;;56.00;42.00;;;;;10.79;44.03;102138.88;5016801;28;45428;-82
2022/03/26 03:10:51;;;;;;;;;54.25;41.00;;;;;10.94;43.93;102161.84;5017706;28;45998;-85
2022/03/26 03:13:23;;;;;;;;;51.50;39.50;;;;;11.00;43.83;102175.88;5057781;28;45823;-81
2022/03/26 03:15:52;;;;;;;;;55.00;40.75;;;;;10.77;43.79;102150.03;5055962;28;45737;-83
2022/03/26 03:18:29;;;;;;;;;58.00;44.25;;;;;10.68;44.09;102133.78;5038000;28;45688;-82
2022/03/26 03:21:15;;;;;;;;;57.50;41.75;;;;;10.90;44.49;102187.06;5056506;28;45729;-84
2022/03/26 03:24:04;;;;;;;;;54.50;41.50;;;;;10.90;43.83;102195.31;5056890;28;46381;-82
2022/03/26 03:26:29;;;;;;;;;57.00;40.50;;;;;10.59;44.49;102141.19;5034944;28;45829;-79
2022/03/26 03:29:26;;;;;;;;;;;;;;;;;;;;;
2022/03/26 03:32:00;;;;;;;;;60.25;45.25;;;;;10.78;44.79;102189.34;5046080;28;73298;-83
2022/03/26 03:34:26;;;;;;;;;53.75;39.75;;;;;10.21;45.11;102089.63;5037597;28;47567;-82
2022/03/26 03:44:04;;;;;;;;;52.75;42.25;;;;;10.65;45.34;102178.03;5044362;28;45528;-82
2022/03/26 03:50:44;;;;;;;;;53.50;42.25;;;;;10.59;45.63;102182.31;5024497;28;45532;-82
2022/03/26 03:56:31;;;;;;;;;57.25;44.50;;;;;10.31;45.13;102140.66;5034545;28;46010;-80
2022/03/26 03:59:46;;;;;;;;;53.50;41.25;;;;;10.55;45.23;102194.66;5031333;28;45490;-82
2022/03/26 04:06:01;;;;;;;;;58.50;45.00;;;;;10.25;45.69;102154.06;4947875;28;44846;-83
2022/03/26 04:12:13;;;;;;;;;55.00;42.75;;;;;10.12;45.67;102134.53;4977522;28;46402;-83
2022/03/26 04:14:44;;;;;;;;;60.75;46.75;;;;;10.15;45.41;102139.66;4993155;28;45491;-82
2022/03/26 04:17:30;;;;;;;;;56.25;43.75;;;;;10.27;45.63;102164.84;5005832;28;46045;-81
2022/03/26 04:20:23;;;;;;;;;62.25;46.00;;;;;9.90;45.86;102104.00;5033628;28;46224;-82
2022/03/26 04:23:27;;;;;;;;;;;;;;;;;;;;;
2022/03/26 04:25:53;;;;;;;;;53.25;42.50;;;;;10.39;45.83;102206.53;5052521;28;72178;-83
2022/03/26 04:28:52;;;;;;;;;57.50;43.75;;;;;10.37;46.15;102206.69;5054260;28;45723;-84
2022/03/26 04:31:18;;;;;;;;;56.50;41.50;;;;;10.34;45.62;102207.00;5050616;28;45496;-80
2022/03/26 04:33:51;;;;;;;;;57.50;43.50;;;;;10.31;46.21;102204.59;5035040;28;46851;-82
2022/03/26 04:36:17;;;;;;;;;60.00;45.25;;;;;9.95;46.35;102138.28;5034857;28;45474;-83
2022/03/26 04:38:42;;;;;;;;;55.50;44.50;;;;;9.89;45.94;102135.19;5053322;28;45430;-83
2022/03/26 04:41:31;;;;;;;;;65.25;46.75;;;;;10.11;45.84;102173.91;5045938;28;45568;-83
2022/03/26 04:44:00;;;;;;;;;59.00;46.50;;;;;10.23;46.37;102197.22;5031864;28;46674;-83
2022/03/26 04:46:26;;;;;;;;;58.50;46.00;;;;;9.85;46.10;102143.91;5039911;28;45793;-82
2022/03/26 04:48:51;;;;;;;;;65.00;46.50;;;;;9.96;46.40;102159.19;5054233;28;45860;-86
2022/03/26 04:51:20;;;;;;;;;60.00;45.00;;;;;9.78;46.38;102140.16;5035587;28;45747;-84
2022/03/26 04:53:57;;;;;;;;;59.75;45.25;;;;;10.19;46.51;102203.22;5036006;28;46031;-84
2022/03/26 04:56:23;;;;;;;;;55.50;42.00;;;;;10.17;46.41;102200.66;5035262;28;46169;-82
2022/03/26 04:59:13;;;;;;;;;62.00;45.75;;;;;10.16;46.12;102198.91;5034646;28;45424;-82
2022/03/26 05:01:44;;;;;;;;;59.00;45.25;;;;;10.06;46.55;102195.50;5052964;28;45487;-82
2022/03/26 05:04:25;;;;;;;;;58.00;46.00;;;;;9.85;46.33;102171.31;5054672;28;46425;-81
2022/03/26 05:06:54;;;;;;;;;38.25;31.25;;;;;9.85;46.28;102160.34;5053773;28;45883;-83
2022/03/26 05:09:19;;;;;;;;;60.00;42.00;;;;;10.06;46.76;102193.63;5034855;28;45861;-83
2022/03/26 05:15:13;;;;;;;;;60.00;42.25;;;;;9.56;46.62;102119.75;5024395;28;45900;-83
2022/03/26 05:17:39;;;;;;;;;59.00;46.50;;;;;9.65;46.70;102149.69;5027910;28;45703;-83
2022/03/26 05:20:59;;;;;;;;;59.75;43.75;;;;;9.67;46.58;102142.19;5015236;28;45614;-81
2022/03/26 05:23:23;;;;;;;;;57.50;45.75;;;;;10.01;46.53;102196.00;5011320;28;45939;-82
2022/03/26 05:25:52;;;;;;;;;56.50;42.00;;;;;10.05;46.56;102213.81;5014845;28;47006;-82
2022/03/26 05:28:37;;;;;;;;;;;;;;;;;;;;;
2022/03/26 05:31:24;;;;;;;;;56.75;42.00;;;;;10.04;47.03;102220.34;5034299;28;67439;-83
2022/03/26 05:34:08;;;;;;;;;51.25;37.00;;;;;9.64;46.62;102169.91;5026065;28;46092;-83
2022/03/26 05:36:39;;;;;;;;;63.50;47.50;;;;;10.01;46.38;102228.88;5046980;28;47107;-82
2022/03/26 05:39:08;;;;;;;;;63.75;45.00;;;;;10.00;47.13;102223.56;5029863;28;45793;-83
2022/03/26 05:41:34;;;;;;;;;61.00;46.00;;;;;9.62;46.93;102169.22;5055627;28;45414;-83
2022/03/26 05:44:00;;;;;;;;;56.25;43.50;;;;;9.36;46.87;102117.31;5052766;28;45375;-82
2022/03/26 05:46:49;;;;;;;;;61.00;47.25;;;;;9.78;46.67;102190.31;5051849;28;47021;-84
2022/03/26 05:49:24;;;;;;;;;63.75;46.50;;;;;9.91;46.70;102214.50;5044800;28;45890;-84
2022/03/26 05:51:53;;;;;;;;;58.00;43.50;;;;;9.70;46.33;102163.78;5033528;28;45384;-82
2022/03/26 05:54:18;;;;;;;;;65.00;47.25;;;;;10.14;45.83;102211.09;5023589;28;45054;-83
2022/03/26 05:56:51;;;;;;;;;60.25;45.00;;;;;9.97;46.01;102167.22;5040097;28;46194;-84
2022/03/26 05:59:24;;;;;;;;;58.75;44.25;;;;;10.50;45.21;102230.00;5042951;28;45501;-84
2022/03/26 06:01:51;;;;;;;;;59.00;46.25;;;;;10.05;45.62;102122.53;5028961;28;46655;-82
2022/03/26 06:04:17;;;;;;;;;60.50;46.50;;;;;10.79;44.97;102210.22;5029697;28;46147;-83
2022/03/26 06:06:43;;;;;;;;;60.25;45.50;;;;;11.08;44.59;102215.16;5040854;28;46038;-82
2022/03/26 06:09:10;;;;;;;;;57.50;44.75;;;;;11.43;43.58;102226.69;5027113;28;45548;-84
2022/03/26 06:11:36;;;;;;;;;59.25;44.50;;;;;11.48;43.17;102194.06;5034587;28;45809;-83
2022/03/26 06:14:02;;;;;;;;;62.00;45.50;;;;;11.95;43.03;102240.91;5047879;22;45576;-71
2022/03/26 06:16:28;;;;;;;;;59.25;43.50;;;;;12.01;42.76;102240.19;5025107;28;46119;-68
2022/03/26 06:18:53;;;;;;;;;57.50;44.25;;;;;12.03;42.90;102240.84;5024383;28;45804;-70
2022/03/26 06:21:19;;;;;;;;;52.75;39.75;;;;;12.17;42.32;102248.31;5024472;28;45708;-67
2022/03/26 06:23:44;;;;;;;;;57.75;46.50;;;;;12.52;41.90;102248.72;5007923;28;45959;-69
2022/03/26 06:26:10;;;;;;;;;64.00;46.00;;;;;12.92;41.00;102258.69;5023799;28;46203;-70
2022/03/26 06:28:36;;;;;;;;;57.00;45.00;;;;;13.06;40.70;102255.13;5022702;28;45679;-68
2022/03/26 06:31:02;;;;;;;;;57.00;43.75;;;;;13.11;40.43;102258.16;5026890;28;45784;-68
2022/03/26 06:33:28;;;;;;;;;65.50;46.75;;;;;13.29;40.12;102255.03;5025366;28;45382;-68
2022/03/26 06:35:53;;;;;;;;;59.75;44.50;;;;;13.70;39.03;102259.22;5025560;28;46052;-70
2022/03/26 06:38:19;;;;;;;;;58.75;46.00;;;;;14.14;39.01;102255.50;5026118;28;46636;-69
2022/03/26 06:40:44;;;;;;;;;55.25;43.75;;;;;14.65;37.16;102265.56;5025889;28;46046;-68
2022/03/26 06:43:09;;;;;;;;;62.25;43.25;;;;;15.15;36.92;102265.56;5027145;28;45528;-69
2022/03/26 06:45:36;;;;;;;;;61.75;46.00;;;;;15.60;35.93;102270.69;5024377;28;46819;-69
2022/03/26 06:48:02;;;;;;;;;63.25;47.50;;;;;16.05;34.77;102266.44;5027877;28;45933;-68
2022/03/26 06:50:27;;;;;;;;;60.50;48.00;;;;;16.54;34.02;102269.09;5027675;28;45760;-70
2022/03/26 06:52:55;;;;;;;;;61.25;45.00;;;;;17.01;33.54;102267.22;5014752;28;46060;-68
2022/03/26 06:55:21;;;;;;;;;60.50;47.00;;;;;17.47;32.70;102265.44;5016205;28;45796;-70
2022/03/26 06:57:48;;;;;;;;;55.50;42.75;;;;;17.98;31.56;102264.63;5027199;28;45988;-69
2022/03/26 07:00:15;;;;;;;;;59.25;41.25;;;;;18.52;30.45;102267.91;5028048;28;45921;-70
2022/03/26 07:02:42;;;;;;;;;53.25;42.75;;;;;18.93;30.04;102253.72;5027250;28;45744;-69
2022/03/26 07:05:08;;;;;;;;;53.50;41.00;;;;;19.45;29.11;102279.28;5020193;28;46280;-70
2022/03/26 07:07:34;;;;;;;;;49.25;37.75;;;;;19.83;29.10;102282.94;5025039;28;45408;-70
2022/03/26 07:10:00;;;;;;;;;43.00;37.00;;;;;20.19;28.34;102293.16;5025214;28;45426;-71
2022/03/26 07:12:29;;;;;;;;;50.67;38.33;;;;;20.53;27.40;102285.16;5023673;28;46056;-69
2022/03/26 07:14:55;;;;;;;;;56.75;43.00;;;;;20.80;26.82;102284.78;5024344;28;46285;-69
2022/03/26 07:17:20;;;;;;;;;56.67;40.67;;;;;21.07;26.63;102290.75;5025975;28;45446;-71
2022/03/26 07:19:46;;;;;;;;;54.33;41.33;;;;;21.33;25.81;102295.00;5023026;28;45672;-69
2022/03/26 07:22:11;;;;;;;;;49.00;39.33;;;;;21.54;25.87;102289.06;5023093;28;45678;-70
2022/03/26 07:24:37;;;;;;;;;53.33;40.33;;;;;21.74;25.42;102300.69;5023328;28;46083;-69
2022/03/26 07:27:02;;;;;;;;;49.33;38.00;;;;;21.96;24.81;102291.63;5023384;28;45394;-71
2022/03/26 07:29:28;;;;;;;;;49.33;37.00;;;;;22.18;24.84;102305.75;5027190;28;45787;-69
2022/03/26 07:31:54;;;;;;;;;46.00;37.33;;;;;22.21;24.73;102302.47;5028173;28;47347;-69
2022/03/26 07:34:20;;;;;;;;;56.75;42.50;;;;;21.60;25.23;102297.31;5024413;28;46409;-70
2022/03/26 07:36:45;;;;;;;;;57.50;42.50;;;;;20.79;25.83;102302.59;5024474;28;45638;-69
2022/03/26 07:39:12;;;;;;;;;53.67;41.33;;;;;19.98;27.01;102302.88;5019958;28;45817;-70
2022/03/26 07:41:39;;;;;;;;;54.00;44.50;;;;;19.31;27.71;102313.88;5028710;28;45996;-68
2022/03/26 07:44:04;;;;;;;;;54.50;44.00;;;;;18.68;28.81;102310.09;5011586;28;47253;-69
2022/03/26 07:46:29;;;;;;;;;49.75;40.50;;;;;18.23;29.61;102310.19;5029755;28;45730;-72
2022/03/26 07:48:55;;;;;;;;;52.00;41.75;;;;;17.66;29.98;102310.81;5030369;28;45859;-74
2022/03/26 07:51:20;;;;;;;;;54.50;40.25;;;;;17.30;30.51;102309.41;5029536;28;45622;-73
2022/03/26 07:53:46;;;;;;;;;46.25;38.00;;;;;16.95;31.08;102304.13;5027033;28;46239;-71
2022/03/26 07:56:11;;;;;;;;;52.25;39.50;;;;;16.74;31.80;102308.75;5007754;28;45908;-71
2022/03/26 07:58:37;;;;;;;;;54.50;43.75;;;;;16.56;32.24;102305.75;5031594;28;45920;-72
2022/03/26 08:01:02;;;;;;;;;58.50;45.25;;;;;16.45;32.42;102309.97;5029751;28;45819;-72
2022/03/26 08:03:28;;;;;;;;;60.75;43.50;;;;;16.35;32.15;102313.16;5023791;28;45467;-72
2022/03/26 08:05:53;;;;;;;;;55.00;44.25;;;;;16.12;32.51;102315.44;5032239;28;45795;-71
2022/03/26 08:08:18;;;;;;;;;57.25;42.50;;;;;15.85;32.42;102340.22;5033012;28;45268;-72
2022/03/26 08:10:44;;;;;;;;;52.25;40.75;;;;;15.65;33.01;102332.63;5033100;28;45732;-72
2022/03/26 08:13:09;;;;;;;;;55.25;45.50;;;;;15.46;33.06;102323.16;5031418;28;47201;-70
2022/03/26 08:15:35;;;;;;;;;64.25;46.75;;;;;15.30;33.26;102329.00;5032606;28;45471;-72
2022/03/26 08:18:02;;;;;;;;;63.25;48.25;;;;;15.23;34.22;102323.44;5032381;28;45631;-72
2022/03/26 08:20:29;;;;;;;;;56.50;44.00;;;;;15.14;34.31;102324.63;5014911;28;46167;-72
2022/03/26 08:22:54;;;;;;;;;60.75;46.25;;;;;15.04;34.36;102318.59;5032516;28;45801;-69
2022/03/26 08:28:11;;;;;;;;;54.75;44.00;;;;;15.08;33.70;102336.50;5033517;28;45454;-70
2022/03/26 08:30:37;;;;;;;;;55.00;44.50;;;;;15.08;34.34;102322.69;5015254;28;46671;-72
2022/03/26 08:33:04;;;;;;;;;54.00;41.75;;;;;15.05;33.95;102318.41;5032690;28;47031;-70
2022/03/26 08:35:38;;;;;;;;;54.50;43.00;;;;;15.03;33.77;102322.41;5032582;28;45688;-70
2022/03/26 08:38:05;;;;;;;;;60.50;43.00;;;;;15.05;34.23;102334.97;5031608;28;45497;-70
2022/03/26 08:40:30;;;;;;;;;56.50;43.25;;;;;15.04;33.63;102319.44;5032966;28;45689;-71
2022/03/26 08:42:58;;;;;;;;;51.25;41.00;;;;;15.08;33.80;102336.50;5032854;28;45362;-70
2022/03/26 08:45:25;;;;;;;;;58.50;43.25;;;;;15.10;33.58;102334.38;5033232;28;45724;-70
2022/03/26 08:47:51;;;;;;;;;58.25;44.75;;;;;15.11;33.44;102325.88;5031777;28;45577;-70
2022/03/26 08:50:16;;;;;;;;;60.75;45.00;;;;;15.19;33.64;102327.66;5032647;28;45687;-69
2022/03/26 08:52:41;;;;;;;;;47.25;39.50;;;;;15.28;33.81;102337.47;5032617;28;45382;-68
2022/03/26 08:55:30;;;;;;;;;59.25;43.75;;;;;15.35;33.20;102341.16;5033017;28;45397;-68
2022/03/26 08:57:57;;;;;;;;;55.75;43.75;;;;;15.40;32.72;102331.41;5026351;28;45458;-68
2022/03/26 09:00:23;;;;;;;;;55.00;42.75;;;;;15.48;32.54;102331.28;5035808;28;45418;-67
2022/03/26 09:02:48;;;;;;;;;62.00;44.25;;;;;15.53;33.12;102328.72;5032333;28;45737;-68
2022/03/26 09:05:15;;;;;;;;;56.00;42.50;;;;;15.64;32.59;102322.66;5028935;28;45365;-70
2022/03/26 09:07:41;;;;;;;;;53.67;39.67;;;;;15.78;32.69;102337.44;5026097;28;45738;-69
2022/03/26 09:10:07;;;;;;;;;44.75;36.25;;;;;15.84;32.18;102333.84;5030006;28;46528;-69
2022/03/26 09:12:33;;;;;;;;;46.00;38.75;;;;;15.88;31.77;102337.03;5025060;28;46135;-69
2022/03/26 09:15:00;;;;;;;;;53.33;38.33;;;;;16.15;32.22;102321.41;5024783;28;45713;-69
2022/03/26 09:17:25;;;;;;;;;51.00;40.00;;;;;17.22;29.87;102337.38;5026449;28;45826;-71
2022/03/26 09:19:51;;;;;;;;;47.50;38.50;;;;;18.57;28.73;102317.25;5030880;28;45895;-71
2022/03/26 09:22:16;;;;;;;;;48.75;37.75;;;;;19.83;27.22;102321.91;5029122;28;45984;-70
2022/03/26 09:24:42;;;;;;;;;45.00;33.33;;;;;21.04;26.05;102323.88;5032490;28;45823;-71
2022/03/26 09:27:09;;;;;;;;;44.33;36.33;;;;;22.17;24.42;102316.09;5031666;28;45838;-70
2022/03/26 09:29:34;;;;;;;;;48.67;37.67;;;;;23.21;22.87;102319.66;5029183;28;45416;-70
2022/03/26 09:31:59;;;;;;;;;48.00;35.00;;;;;24.09;21.99;102332.13;5012267;28;46522;-68
2022/03/26 09:34:25;;;;;;;;;56.33;39.00;;;;;24.88;21.15;102313.03;5030736;28;45497;-69
2022/03/26 09:36:50;;;;;;;;;52.67;36.33;;;;;25.59;20.26;102317.50;5031228;28;45744;-72
2022/03/26 09:39:16;;;;;;;;;45.33;37.33;;;;;26.29;19.58;102308.81;5020766;28;45905;-70
2022/03/26 09:41:43;;;;;;;;;45.00;35.00;;;;;26.80;19.37;102319.31;5027794;28;45910;-67
2022/03/26 09:44:08;;;;;;;;;49.33;37.33;;;;;27.21;18.34;102314.50;5030724;28;45825;-67
2022/03/26 09:46:37;;;;;;;;;46.67;37.00;;;;;27.57;18.19;102310.81;5028609;28;45770;-73
2022/03/26 09:49:03;;;;;;;;;48.33;38.00;;;;;27.97;18.24;102315.47;5025219;28;45395;-72
2022/03/26 09:51:29;;;;;;;;;42.67;37.00;;;;;28.28;17.75;102309.69;5014676;28;47094;-70
2022/03/26 09:53:56;;;;;;;;;47.00;39.00;;;;;28.64;17.28;102305.78;5026929;28;45311;-69
2022/03/26 09:56:23;;;;;;;;;44.00;30.67;;;;;29.02;17.33;102295.56;5027230;28;45835;-68
2022/03/26 09:58:51;;;;;;;;;47.67;36.00;;;;;29.23;16.51;102309.53;5029868;28;45528;-65
2022/03/26 10:01:17;;;;;;;;;47.33;37.33;;;;;29.27;16.51;102312.59;5010200;28;46799;-69
2022/03/26 10:04:08;;;;;;;;;37.67;30.00;;;;;29.50;16.78;102302.47;5027933;28;45509;-69
2022/03/26 10:06:34;;;;;;;;;42.33;34.00;;;;;29.79;16.11;102302.38;5029405;28;45867;-68
2022/03/26 10:08:59;;;;;;;;;45.33;36.33;;;;;30.05;16.09;102293.63;5014082;28;45929;-72
2022/03/26 10:11:24;;;;;;;;;44.67;35.00;;;;;30.33;15.99;102293.75;5031786;28;45727;-71
2022/03/26 10:13:52;;;;;;;;;46.67;36.33;;;;;30.54;15.21;102271.66;5032211;28;45781;-72
2022/03/26 10:16:18;;;;;;;;;36.33;31.33;;;;;30.86;15.11;102290.66;5031734;28;45469;-71
2022/03/26 10:18:46;;;;;;;;;45.67;36.67;;;;;30.81;14.67;102302.09;5031962;28;45607;-71
2022/03/26 10:21:13;;;;;;;;;49.67;37.00;;;;;30.60;15.22;102285.44;5013140;28;46171;-72
2022/03/26 10:23:50;;;;;;;;;47.67;40.33;;;;;30.41;15.04;102296.78;5031831;28;45736;-72
2022/03/26 10:26:26;;;;;;;;;52.67;38.33;;;;;30.09;15.20;102281.38;5030887;28;45347;-73
2022/03/26 10:28:56;;;;;;;;;42.67;35.00;;;;;29.93;15.35;102279.91;5030114;28;45840;-71
2022/03/26 10:34:15;;;;;;;;;50.67;38.67;;;;;29.57;15.43;102314.28;5031358;28;45841;-71
2022/03/26 10:36:43;;;;;;;;;51.67;37.67;;;;;29.10;15.85;102281.94;5021457;28;46062;-73
2022/03/26 10:39:20;;;;;;;;;50.33;39.67;;;;;28.62;16.15;102285.47;5022125;28;45385;-70
2022/03/26 10:41:48;;;;;;;;;46.00;37.33;;;;;28.18;16.08;102306.91;5025908;28;46023;-69
2022/03/26 10:44:18;;;;;;;;;51.00;36.33;;;;;27.78;16.25;102294.66;5028830;28;45555;-68
2022/03/26 10:46:50;;;;;;;;;48.67;39.00;;;;;27.38;16.66;102314.25;5027121;28;45652;-71
2022/03/26 10:49:31;;;;;;;;;53.33;41.00;;;;;26.99;17.18;102289.47;5026326;28;45341;-70
2022/03/26 10:52:12;;;;;;;;;47.33;36.00;;;;;26.51;17.32;102278.50;5030962;28;45987;-69
2022/03/26 10:54:40;;;;;;;;;50.33;38.67;;;;;26.42;17.57;102281.00;5013392;28;45515;-68
2022/03/26 10:57:06;;;;;;;;;51.67;38.67;;;;;26.24;17.95;102264.63;5023995;28;45462;-71
2022/03/26 10:59:32;;;;;;;;;47.67;36.00;;;;;26.02;18.06;102284.56;5014993;28;45320;-72
2022/03/26 11:01:58;;;;;;;;;55.00;39.00;;;;;25.81;18.38;102275.16;5025793;28;45912;-70
2022/03/26 11:04:25;;;;;;;;;52.67;38.33;;;;;25.44;17.93;102265.72;5012279;28;45380;-72
2022/03/26 11:06:51;;;;;;;;;55.50;38.50;;;;;25.04;18.49;102298.00;5028214;28;45494;-69
2022/03/26 11:09:17;;;;;;;;;52.33;38.00;;;;;24.79;18.54;102271.44;5031606;28;45936;-71
2022/03/26 11:11:43;;;;;;;;;47.67;37.67;;;;;24.54;18.75;102262.78;5013024;28;47412;-70
2022/03/26 11:14:16;;;;;;;;;43.67;36.33;;;;;24.21;18.87;102264.72;5027149;28;46019;-67
2022/03/26 11:17:26;;;;;;;;;48.00;36.00;;;;;23.79;19.29;102277.38;5010163;28;45531;-71
2022/03/26 11:20:14;;;;;;;;;47.33;36.00;;;;;23.31;19.16;102288.19;4981847;28;45420;-68
2022/03/26 11:23:17;;;;;;;;;50.33;37.67;;;;;22.83;19.54;102256.06;5012172;28;46080;-72
2022/03/26 11:26:06;;;;;;;;;54.00;39.00;;;;;22.56;19.67;102259.56;5031688;28;45480;-71
2022/03/26 11:29:08;;;;;;;;;39.67;32.67;;;;;22.29;20.12;102239.72;5031630;28;45943;-69
2022/03/26 11:31:48;;;;;;;;;49.00;38.00;;;;;22.17;19.97;102264.94;5030176;28;45512;-70
2022/03/26 11:34:17;;;;;;;;;55.67;43.67;;;;;21.90;20.59;102247.91;5031171;28;46080;-70
2022/03/26 11:36:43;;;;;;;;;36.67;26.33;;;;;21.63;20.56;102263.31;5031076;28;45375;-70
2022/03/26 11:39:14;;;;;;;;;49.00;39.00;;;;;21.45;21.09;102250.34;5009644;28;45527;-73
2022/03/26 11:41:41;;;;;;;;;46.00;34.33;;;;;21.36;21.02;102242.56;5026111;28;45887;-73
2022/03/26 11:44:07;;;;;;;;;52.33;37.67;;;;;21.32;20.88;102247.81;5022113;28;45465;-72
2022/03/26 11:52:40;;;;;;;;;47.67;38.00;;;;;21.05;21.28;102248.31;5036593;28;45720;-80
2022/03/26 11:55:18;;;;;;;;;53.00;37.33;;;;;21.02;20.98;102247.91;5021091;28;46748;-75
2022/03/26 11:57:44;;;;;;;;;48.33;36.67;;;;;20.80;20.38;102213.13;5017119;28;45356;-80
2022/03/26 12:03:55;;;;;;;;;48.00;37.33;;;;;20.58;20.87;102240.72;4970603;28;45869;-79
2022/03/26 12:09:37;;;;;;;;;39.67;33.67;;;;;20.38;20.81;102251.34;4969495;28;45554;-73
2022/03/26 12:12:10;;;;;;;;;51.33;37.67;;;;;20.23;21.52;102235.06;4971218;28;45788;-73
2022/03/26 12:15:05;;;;;;;;;55.00;40.67;;;;;20.14;21.21;102242.91;4982088;28;45940;-76
2022/03/26 12:17:47;;;;;;;;;48.00;36.00;;;;;20.05;21.45;102236.81;5034413;28;45467;-72
2022/03/26 12:20:26;;;;;;;;;51.00;36.33;;;;;20.04;21.13;102240.66;5036342;28;45540;-77
2022/03/26 12:23:06;;;;;;;;;48.67;38.33;;;;;19.98;21.81;102227.69;5040996;28;45592;-70
2022/03/26 12:25:51;;;;;;;;;51.67;39.00;;;;;19.99;21.66;102215.47;5017134;28;45470;-77
2022/03/26 12:28:25;;;;;;;;;46.67;35.00;;;;;20.03;21.77;102224.19;5033551;28;45674;-78
2022/03/26 12:30:55;;;;;;;;;44.67;34.67;;;;;20.07;22.07;102219.84;5034859;28;45694;-79
2022/03/26 12:33:24;;;;;;;;;41.67;33.67;;;;;20.05;22.04;102199.75;5033417;28;45713;-71
2022/03/26 12:35:51;;;;;;;;;41.67;35.67;;;;;20.04;22.25;102206.41;5033351;28;45670;-71
2022/03/26 12:38:19;;;;;;;;;46.00;35.33;;;;;19.98;22.22;102237.97;5021227;28;48228;-81
2022/03/26 12:44:24;;;;;;;;;46.33;36.67;;;;;19.90;22.09;102209.38;4984639;28;45624;-73
2022/03/26 12:47:06;;;;;;;;;34.00;28.00;;;;;19.91;22.16;102213.88;5022769;28;45474;-77
2022/03/26 12:49:36;;;;;;;;;46.00;37.67;;;;;19.88;22.19;102206.00;5033726;28;45420;-73
2022/03/26 12:52:24;;;;;;;;;43.00;34.00;;;;;19.87;22.25;102204.28;5019466;28;45797;-71
2022/03/26 12:54:57;;;;;;;;;40.67;36.00;;;;;19.92;22.45;102189.66;5030248;28;45474;-73
2022/03/26 13:00:49;;;;;;;;;48.67;35.67;;;;;19.88;22.54;102194.84;5037628;28;45781;-72
2022/03/26 13:03:44;;;;;;;;;46.33;37.00;;;;;19.92;22.70;102198.00;5001336;28;45738;-72
2022/03/26 13:06:12;;;;;;;;;45.67;36.67;;;;;19.92;22.92;102173.81;5030836;28;46079;-70